createdAt,value
2023-03-30T00:00:23.540Z,31.85
2023-03-30T00:01:23.585Z,31.81
2023-03-30T00:02:23.641Z,31.82
2023-03-30T00:03:23.772Z,31.81
2023-03-30T00:04:23.914Z,31.83
2023-03-30T00:05:23.868Z,31.84
2023-03-30T00:06:23.869Z,31.83
2023-03-30T00:07:23.880Z,31.84
2023-03-30T00:08:23.988Z,31.84
2023-03-30T00:09:24.054Z,31.83
2023-03-30T00:10:24.104Z,31.86
2023-03-30T00:11:24.160Z,31.84
2023-03-30T00:12:24.275Z,31.83
2023-03-30T00:13:24.275Z,31.83
2023-03-30T00:14:24.386Z,31.83
2023-03-30T00:15:24.498Z,31.82
2023-03-30T00:16:24.598Z,31.84
2023-03-30T00:17:24.576Z,31.84
2023-03-30T00:18:24.620Z,31.84
2023-03-30T00:19:24.626Z,31.84
2023-03-30T00:20:24.752Z,31.84
2023-03-30T00:21:24.771Z,31.85
2023-03-30T00:22:24.857Z,31.86
2023-03-30T00:23:24.903Z,31.84
2023-03-30T00:24:24.965Z,31.86
2023-03-30T00:25:25.006Z,31.85
2023-03-30T00:26:25.083Z,31.84
2023-03-30T00:27:25.120Z,31.87
2023-03-30T00:28:25.195Z,31.83
2023-03-30T00:29:25.262Z,31.84
2023-03-30T00:30:25.362Z,31.86
2023-03-30T00:31:25.388Z,31.83
2023-03-30T00:32:25.445Z,31.84
2023-03-30T00:33:37.103Z,31.86
2023-03-30T00:34:26.513Z,31.84
2023-03-30T00:35:25.549Z,31.84
2023-03-30T00:36:25.514Z,31.86
2023-03-30T00:37:25.491Z,31.86
2023-03-30T00:38:25.471Z,31.85
2023-03-30T00:39:25.470Z,31.86
2023-03-30T00:40:25.433Z,31.86
2023-03-30T00:41:25.492Z,31.86
2023-03-30T00:42:25.498Z,31.88
2023-03-30T00:43:25.661Z,31.86
2023-03-30T00:44:25.615Z,31.85
2023-03-30T00:45:25.639Z,31.87
2023-03-30T00:46:25.797Z,31.85
2023-03-30T00:47:25.811Z,31.86
2023-03-30T00:48:25.836Z,31.86
2023-03-30T00:49:25.908Z,31.85
2023-03-30T00:50:25.965Z,31.85
2023-03-30T00:51:25.990Z,31.87
2023-03-30T00:52:26.076Z,31.85
2023-03-30T00:53:26.113Z,31.86
2023-03-30T00:54:26.184Z,31.87
2023-03-30T00:55:26.223Z,31.88
2023-03-30T00:56:26.300Z,31.87
2023-03-30T00:57:26.484Z,31.89
2023-03-30T00:58:26.486Z,31.89
2023-03-30T00:59:26.484Z,31.89
2023-03-30T01:00:26.542Z,31.88
2023-03-30T01:01:26.671Z,31.89
2023-03-30T01:02:26.737Z,31.88
2023-03-30T01:03:26.900Z,31.89
2023-03-30T01:04:26.874Z,31.88
2023-03-30T01:05:26.885Z,31.90
2023-03-30T01:06:27.049Z,31.90
2023-03-30T01:07:26.987Z,31.90
2023-03-30T01:08:27.057Z,31.90
2023-03-30T01:09:27.115Z,31.91
2023-03-30T01:10:27.168Z,31.88
2023-03-30T01:11:27.232Z,31.88
2023-03-30T01:12:27.237Z,31.88
2023-03-30T01:13:27.301Z,31.88
2023-03-30T01:14:27.342Z,31.88
2023-03-30T01:15:27.460Z,31.89
2023-03-30T01:16:27.462Z,31.89
2023-03-30T01:17:27.582Z,31.92
2023-03-30T01:18:27.581Z,31.88
2023-03-30T01:19:27.616Z,31.92
2023-03-30T01:20:27.696Z,31.90
2023-03-30T01:21:27.761Z,31.90
2023-03-30T01:22:27.780Z,31.89
2023-03-30T01:23:27.843Z,31.89
2023-03-30T01:24:27.893Z,31.90
2023-03-30T01:25:27.986Z,31.91
2023-03-30T01:26:28.048Z,31.90
2023-03-30T01:27:28.111Z,31.90
2023-03-30T01:28:28.116Z,31.92
2023-03-30T01:29:28.176Z,31.90
2023-03-30T01:30:28.284Z,31.91
2023-03-30T01:31:28.282Z,31.90
2023-03-30T01:32:28.374Z,31.90
2023-03-30T01:33:28.411Z,31.88
2023-03-30T01:34:28.433Z,31.92
2023-03-30T01:35:28.628Z,31.90
2023-03-30T01:36:28.622Z,31.92
2023-03-30T01:37:28.582Z,31.92
2023-03-30T01:38:28.675Z,31.91
2023-03-30T01:39:28.766Z,31.92
2023-03-30T01:40:28.803Z,31.93
2023-03-30T01:41:28.876Z,31.92
2023-03-30T01:42:28.928Z,31.90
2023-03-30T01:43:28.975Z,31.93
2023-03-30T01:44:28.997Z,31.93
2023-03-30T01:45:29.101Z,31.93
2023-03-30T01:46:29.154Z,31.90
2023-03-30T01:47:29.203Z,31.93
2023-03-30T01:48:29.244Z,31.93
2023-03-30T01:49:29.329Z,31.95
2023-03-30T01:50:29.348Z,31.95
2023-03-30T01:51:29.406Z,31.93
2023-03-30T01:52:29.462Z,31.94
2023-03-30T01:53:29.477Z,31.93
2023-03-30T01:54:29.568Z,31.95
2023-03-30T01:55:29.616Z,31.94
2023-03-30T01:56:29.677Z,31.94
2023-03-30T01:57:29.723Z,31.96
2023-03-30T01:58:29.789Z,31.98
2023-03-30T01:59:29.827Z,31.99
2023-03-30T02:00:29.909Z,31.95
2023-03-30T02:01:29.961Z,31.95
2023-03-30T02:02:30.162Z,31.94
2023-03-30T02:03:30.158Z,31.96
2023-03-30T02:04:30.106Z,31.95
2023-03-30T02:05:30.128Z,31.95
2023-03-30T02:06:30.173Z,31.95
2023-03-30T02:07:30.250Z,31.95
2023-03-30T02:08:30.296Z,31.94
2023-03-30T02:09:30.280Z,31.97
2023-03-30T02:10:30.353Z,31.96
2023-03-30T02:11:30.392Z,31.97
2023-03-30T02:12:30.430Z,31.98
2023-03-30T02:13:30.513Z,31.98
2023-03-30T02:14:30.540Z,31.99
2023-03-30T02:15:30.563Z,31.98
2023-03-30T02:16:30.663Z,31.99
2023-03-30T02:17:30.701Z,31.98
2023-03-30T02:18:30.760Z,31.98
2023-03-30T02:19:30.829Z,31.98
2023-03-30T02:20:30.865Z,31.99
2023-03-30T02:21:30.913Z,31.99
2023-03-30T02:22:30.952Z,31.99
2023-03-30T02:23:31.005Z,31.98
2023-03-30T02:24:31.059Z,31.97
2023-03-30T02:25:31.145Z,31.96
2023-03-30T02:26:31.209Z,31.99
2023-03-30T02:27:31.226Z,32.00
2023-03-30T02:28:31.288Z,31.99
2023-03-30T02:29:31.367Z,31.98
2023-03-30T02:30:31.414Z,32.01
2023-03-30T02:31:31.542Z,31.99
2023-03-30T02:32:31.517Z,32.00
2023-03-30T02:33:31.558Z,32.00
2023-03-30T02:34:31.587Z,31.99
2023-03-30T02:35:31.676Z,31.99
2023-03-30T02:36:31.683Z,32.00
2023-03-30T02:37:31.691Z,32.02
2023-03-30T02:38:31.768Z,31.99
2023-03-30T02:39:31.814Z,31.99
2023-03-30T02:40:31.931Z,32.00
2023-03-30T02:41:31.946Z,31.99
2023-03-30T02:42:31.985Z,32.01
2023-03-30T02:43:31.982Z,32.00
2023-03-30T02:44:32.056Z,32.00
2023-03-30T02:45:32.118Z,32.01
2023-03-30T02:46:32.113Z,32.01
2023-03-30T02:47:32.204Z,32.01
2023-03-30T02:48:32.148Z,32.02
2023-03-30T02:49:32.159Z,32.01
2023-03-30T02:50:32.214Z,32.03
2023-03-30T02:51:32.223Z,32.02
2023-03-30T02:52:32.209Z,32.02
2023-03-30T02:53:32.321Z,32.01
2023-03-30T02:54:32.295Z,32.01
2023-03-30T02:55:32.338Z,32.03
2023-03-30T02:56:32.390Z,32.03
2023-03-30T02:57:32.424Z,32.02
2023-03-30T02:58:32.483Z,32.02
2023-03-30T02:59:32.483Z,32.04
2023-03-30T03:00:32.501Z,32.01
2023-03-30T03:01:32.605Z,32.02
2023-03-30T03:02:32.612Z,32.04
2023-03-30T03:03:32.705Z,32.03
2023-03-30T03:04:32.611Z,32.02
2023-03-30T03:05:32.682Z,32.02
2023-03-30T03:06:32.683Z,32.02
2023-03-30T03:07:32.680Z,32.04
2023-03-30T03:08:32.728Z,32.01
2023-03-30T03:09:32.694Z,32.03
2023-03-30T03:10:32.705Z,32.06
2023-03-30T03:11:32.773Z,32.04
2023-03-30T03:12:32.756Z,32.02
2023-03-30T03:13:32.767Z,32.03
2023-03-30T03:14:32.813Z,32.04
2023-03-30T03:15:32.840Z,32.06
2023-03-30T03:16:32.880Z,32.05
2023-03-30T03:17:32.833Z,32.07
2023-03-30T03:18:32.832Z,32.04
2023-03-30T03:19:32.840Z,32.03
2023-03-30T03:20:32.879Z,32.03
2023-03-30T03:21:32.827Z,32.06
2023-03-30T03:22:32.837Z,32.09
2023-03-30T03:23:32.850Z,32.04
2023-03-30T03:24:32.837Z,32.05
2023-03-30T03:25:32.854Z,32.04
2023-03-30T03:26:32.895Z,32.06
2023-03-30T03:27:32.901Z,32.04
2023-03-30T03:28:32.931Z,32.04
2023-03-30T03:29:32.936Z,32.06
2023-03-30T03:30:32.984Z,32.04
2023-03-30T03:31:33.039Z,32.04
2023-03-30T03:32:33.048Z,32.06
2023-03-30T03:33:33.098Z,32.05
2023-03-30T03:34:33.078Z,32.06
2023-03-30T03:35:33.076Z,32.06
2023-03-30T03:36:33.082Z,32.07
2023-03-30T03:37:33.143Z,32.08
2023-03-30T03:38:33.114Z,32.09
2023-03-30T03:39:33.211Z,32.10
2023-03-30T03:40:33.212Z,32.06
2023-03-30T03:41:33.198Z,32.07
2023-03-30T03:42:33.235Z,32.07
2023-03-30T03:43:33.232Z,32.08
2023-03-30T03:44:33.293Z,32.07
2023-03-30T03:45:33.295Z,32.07
2023-03-30T03:46:33.359Z,32.07
2023-03-30T03:47:33.329Z,32.08
2023-03-30T03:48:33.326Z,32.07
2023-03-30T03:49:33.324Z,32.05
2023-03-30T03:50:33.422Z,32.07
2023-03-30T03:51:33.352Z,32.08
2023-03-30T03:52:33.411Z,32.07
2023-03-30T03:53:33.381Z,32.08
2023-03-30T03:54:33.393Z,32.06
2023-03-30T03:55:33.389Z,32.06
2023-03-30T03:56:33.413Z,32.10
2023-03-30T03:57:33.412Z,32.09
2023-03-30T03:58:33.413Z,32.06
2023-03-30T03:59:33.451Z,32.06
2023-03-30T04:00:33.504Z,32.06
2023-03-30T04:01:33.519Z,32.09
2023-03-30T04:02:33.568Z,32.08
2023-03-30T04:03:33.523Z,32.08
2023-03-30T04:04:33.543Z,32.09
2023-03-30T04:05:34.075Z,32.10
2023-03-30T04:06:33.543Z,32.09
2023-03-30T04:07:33.546Z,32.08
2023-03-30T04:08:33.552Z,32.09
2023-03-30T04:09:33.521Z,32.09
2023-03-30T04:10:33.539Z,32.08
2023-03-30T04:11:33.564Z,32.08
2023-03-30T04:12:33.540Z,32.09
2023-03-30T04:13:33.576Z,32.08
2023-03-30T04:14:33.573Z,32.07
2023-03-30T04:15:33.541Z,32.11
2023-03-30T04:16:33.573Z,32.07
2023-03-30T04:17:33.561Z,32.07
2023-03-30T04:18:33.684Z,32.07
2023-03-30T04:19:33.561Z,32.09
2023-03-30T04:20:33.576Z,32.08
2023-03-30T04:21:33.574Z,32.07
2023-03-30T04:22:33.687Z,32.08
2023-03-30T04:23:33.622Z,32.07
2023-03-30T04:24:33.667Z,32.07
2023-03-30T04:25:33.610Z,32.07
2023-03-30T04:26:33.601Z,32.09
2023-03-30T04:27:33.636Z,32.06
2023-03-30T04:28:33.578Z,32.07
2023-03-30T04:29:33.639Z,32.05
2023-03-30T04:30:33.598Z,32.07
2023-03-30T04:31:33.638Z,32.05
2023-03-30T04:32:33.698Z,32.05
2023-03-30T04:33:33.620Z,32.06
2023-03-30T04:34:33.640Z,32.07
2023-03-30T04:35:33.653Z,32.05
2023-03-30T04:36:33.583Z,32.05
2023-03-30T04:37:33.609Z,32.07
2023-03-30T04:38:33.591Z,32.10
2023-03-30T04:39:33.625Z,32.08
2023-03-30T04:40:33.603Z,32.09
2023-03-30T04:41:33.665Z,32.08
2023-03-30T04:42:33.594Z,32.08
2023-03-30T04:43:33.585Z,32.09
2023-03-30T04:44:33.558Z,32.09
2023-03-30T04:45:33.692Z,32.10
2023-03-30T04:46:33.601Z,32.10
2023-03-30T04:47:33.622Z,32.08
2023-03-30T04:48:33.578Z,32.09
2023-03-30T04:49:33.725Z,32.09
2023-03-30T04:50:33.619Z,32.08
2023-03-30T04:51:33.643Z,32.09
2023-03-30T04:52:33.639Z,32.08
2023-03-30T04:53:33.653Z,32.09
2023-03-30T04:54:33.687Z,32.09
2023-03-30T04:55:33.672Z,32.09
2023-03-30T04:56:33.666Z,32.08
2023-03-30T04:57:33.666Z,32.11
2023-03-30T04:58:33.722Z,32.11
2023-03-30T04:59:33.741Z,32.11
2023-03-30T05:00:33.730Z,32.11
2023-03-30T05:01:33.947Z,32.12
2023-03-30T05:02:33.834Z,32.13
2023-03-30T05:03:33.832Z,32.08
2023-03-30T05:04:33.765Z,32.14
2023-03-30T05:05:33.775Z,32.12
2023-03-30T05:06:33.848Z,32.11
2023-03-30T05:07:33.820Z,32.11
2023-03-30T05:08:33.806Z,32.11
2023-03-30T05:09:33.823Z,32.10
2023-03-30T05:10:33.757Z,32.08
2023-03-30T05:11:33.771Z,32.11
2023-03-30T05:12:33.743Z,32.11
2023-03-30T05:13:33.771Z,32.10
2023-03-30T05:14:33.761Z,32.11
2023-03-30T05:15:33.817Z,32.11
2023-03-30T05:16:33.813Z,32.10
2023-03-30T05:17:33.917Z,32.08
2023-03-30T05:18:33.749Z,32.08
2023-03-30T05:19:33.755Z,32.09
2023-03-30T05:20:33.778Z,32.09
2023-03-30T05:21:33.749Z,32.10
2023-03-30T05:22:33.765Z,32.09
2023-03-30T05:23:33.719Z,32.09
2023-03-30T05:24:33.727Z,32.08
2023-03-30T05:25:33.844Z,32.08
2023-03-30T05:26:33.829Z,32.08
2023-03-30T05:27:33.773Z,32.13
2023-03-30T05:28:33.770Z,32.08
2023-03-30T05:29:33.748Z,32.09
2023-03-30T05:30:33.766Z,32.08
2023-03-30T05:31:33.780Z,32.06
2023-03-30T05:32:33.828Z,32.08
2023-03-30T05:33:33.837Z,32.11
2023-03-30T05:34:33.759Z,32.33
2023-03-30T05:35:33.777Z,32.50
2023-03-30T05:36:33.792Z,32.68
2023-03-30T05:37:33.763Z,32.76
2023-03-30T05:38:33.863Z,32.92
2023-03-30T05:39:33.764Z,33.09
2023-03-30T05:40:33.772Z,33.34
2023-03-30T05:41:33.765Z,33.41
2023-03-30T05:42:33.809Z,33.57
2023-03-30T05:43:33.820Z,33.87
2023-03-30T05:44:33.825Z,34.08
2023-03-30T05:45:34.667Z,34.23
2023-03-30T05:46:33.972Z,34.36
2023-03-30T05:47:34.693Z,34.47
2023-03-30T05:48:34.062Z,34.45
2023-03-30T05:49:34.129Z,34.57
2023-03-30T05:50:34.184Z,34.90
2023-03-30T05:51:34.256Z,34.78
2023-03-30T05:52:34.297Z,34.81
2023-03-30T05:53:34.296Z,34.90
2023-03-30T05:54:34.375Z,34.99
2023-03-30T05:55:34.484Z,35.07
2023-03-30T05:56:34.493Z,35.21
2023-03-30T05:57:34.571Z,35.28
2023-03-30T05:58:34.620Z,35.33
2023-03-30T05:59:34.649Z,35.42
2023-03-30T06:00:34.724Z,35.51
2023-03-30T06:01:34.832Z,35.58
2023-03-30T06:02:35.033Z,35.78
2023-03-30T06:03:35.109Z,35.86
2023-03-30T06:04:35.011Z,35.93
2023-03-30T06:05:35.073Z,35.87
2023-03-30T07:29:52.672Z,40.69
2023-03-30T07:30:53.673Z,40.26
2023-03-30T07:31:52.684Z,39.06
2023-03-30T07:32:53.465Z,38.48
2023-03-30T07:33:52.639Z,38.48
2023-03-30T07:34:52.639Z,38.45
2023-03-30T07:35:52.637Z,38.71
2023-03-30T07:36:54.448Z,38.53
2023-03-30T07:37:52.630Z,38.46
2023-03-30T07:38:52.647Z,38.50
2023-03-30T07:39:52.750Z,38.55
2023-03-30T07:40:52.721Z,38.51
2023-03-30T07:41:52.777Z,38.57
2023-03-30T07:42:52.833Z,38.57
2023-03-30T07:43:52.833Z,38.64
2023-03-30T07:44:52.853Z,38.82
2023-03-30T07:45:52.916Z,38.77
2023-03-30T07:46:52.950Z,38.79
2023-03-30T07:47:52.962Z,38.81
2023-03-30T07:48:53.072Z,38.83
2023-03-30T07:49:53.013Z,38.81
2023-03-30T07:50:53.095Z,38.83
2023-03-30T07:51:53.147Z,38.82
2023-03-30T07:52:53.542Z,38.79
2023-03-30T07:53:53.206Z,38.78
2023-03-30T07:54:53.280Z,38.79
2023-03-30T07:55:53.255Z,38.83
2023-03-30T07:56:53.267Z,38.83
2023-03-30T07:57:53.416Z,38.81
2023-03-30T07:58:53.460Z,38.84
2023-03-30T07:59:53.695Z,38.86
2023-03-30T08:00:53.460Z,38.84
2023-03-30T08:01:53.456Z,38.87
2023-03-30T08:02:53.783Z,38.91
2023-03-30T08:03:53.681Z,38.93
2023-03-30T08:04:53.675Z,38.95
2023-03-30T08:05:53.598Z,38.94
2023-03-30T08:06:53.578Z,38.96
2023-03-30T08:07:53.696Z,38.95
2023-03-30T08:08:53.676Z,38.94
2023-03-30T08:09:53.734Z,38.98
2023-03-30T08:10:53.733Z,39.04
2023-03-30T08:11:53.816Z,39.01
2023-03-30T08:12:53.966Z,39.08
2023-03-30T08:13:54.042Z,39.10
2023-03-30T08:14:54.056Z,39.13
2023-03-30T08:15:54.129Z,39.17
2023-03-30T08:16:54.215Z,39.20
2023-03-30T08:17:54.362Z,39.24
2023-03-30T08:18:54.243Z,39.36
2023-03-30T08:19:54.348Z,39.36
2023-03-30T08:20:54.442Z,39.33
2023-03-30T08:21:54.447Z,39.35
2023-03-30T08:22:54.585Z,39.40
2023-03-30T08:23:54.590Z,39.46
2023-03-30T08:24:54.672Z,39.45
2023-03-30T08:25:54.979Z,39.55
2023-03-30T08:26:55.230Z,39.56
2023-03-30T08:27:55.149Z,39.52
2023-03-30T08:28:55.186Z,39.50
2023-03-30T08:29:55.268Z,39.46
2023-03-30T08:30:55.420Z,39.37
2023-03-30T08:31:55.477Z,39.29
2023-03-30T08:32:55.582Z,39.23
2023-03-30T08:33:55.472Z,39.15
2023-03-30T08:34:55.640Z,39.07
2023-03-30T08:35:55.659Z,38.96
2023-03-30T08:36:55.696Z,38.94
2023-03-30T08:37:55.732Z,38.89
2023-03-30T08:38:55.901Z,38.84
2023-03-30T08:39:57.005Z,38.77
2023-03-30T08:40:56.206Z,38.74
2023-03-30T08:41:56.197Z,38.70
2023-03-30T08:42:56.305Z,38.62
2023-03-30T08:43:56.317Z,38.60
2023-03-30T08:44:56.417Z,38.51
2023-03-30T08:45:56.583Z,38.25
2023-03-30T08:46:56.566Z,38.05
2023-03-30T08:47:58.203Z,38.03
2023-03-30T08:48:56.675Z,38.12
2023-03-30T08:49:57.066Z,38.11
2023-03-30T08:50:56.751Z,38.27
2023-03-30T08:51:57.071Z,38.40
2023-03-30T08:52:57.051Z,38.37
2023-03-30T08:53:57.048Z,38.50
2023-03-30T08:54:57.079Z,38.57
2023-03-30T08:55:57.149Z,38.58
2023-03-30T08:56:57.308Z,38.59
2023-03-30T08:57:57.298Z,38.56
2023-03-30T08:58:57.440Z,38.66
2023-03-30T08:59:57.425Z,38.71
2023-03-30T09:00:57.526Z,38.74
2023-03-30T09:01:58.447Z,38.74
2023-03-30T09:02:57.615Z,38.73
2023-03-30T09:03:57.782Z,38.80
2023-03-30T09:04:57.806Z,38.85
2023-03-30T09:05:57.765Z,38.85
2023-03-30T09:06:57.838Z,38.93
2023-03-30T09:07:58.010Z,38.97
2023-03-30T09:08:58.041Z,39.00
2023-03-30T09:09:59.100Z,39.06
2023-03-30T09:10:58.246Z,39.07
2023-03-30T09:11:58.224Z,39.13
2023-03-30T09:12:58.248Z,39.15
2023-03-30T09:13:58.299Z,39.16
2023-03-30T09:14:58.373Z,39.15
2023-03-30T09:15:59.542Z,39.22
2023-03-30T09:16:58.523Z,39.23
2023-03-30T09:17:59.115Z,39.24
2023-03-30T09:18:59.259Z,39.27
2023-03-30T09:19:58.690Z,39.33
2023-03-30T09:20:58.653Z,39.36
2023-03-30T09:21:59.223Z,39.39
2023-03-30T09:22:59.014Z,39.35
2023-03-30T09:23:58.821Z,39.42
2023-03-30T09:24:58.857Z,39.45
2023-03-30T09:26:01.304Z,39.52
2023-03-30T09:26:59.142Z,39.50
2023-03-30T09:27:58.865Z,39.52
2023-03-30T09:28:58.889Z,39.55
2023-03-30T09:29:58.965Z,39.62
2023-03-30T09:30:59.109Z,39.61
2023-03-30T09:32:02.184Z,39.70
2023-03-30T09:33:01.685Z,39.58
2023-03-30T09:33:58.911Z,39.55
2023-03-30T09:34:59.021Z,39.42
2023-03-30T09:35:58.929Z,39.30
2023-03-30T09:36:58.876Z,39.13
2023-03-30T09:37:58.857Z,38.61
2023-03-30T09:38:58.809Z,37.72
2023-03-30T09:39:58.881Z,37.05
2023-03-30T09:40:59.588Z,37.12
2023-03-30T09:41:59.702Z,36.92
2023-03-30T09:42:58.862Z,37.32
2023-03-30T09:43:58.862Z,37.94
2023-03-30T09:44:58.802Z,37.89
2023-03-30T09:45:58.874Z,37.54
2023-03-30T09:46:58.836Z,38.20
2023-03-30T09:47:58.901Z,38.35
2023-03-30T09:48:58.826Z,38.51
2023-03-30T09:49:58.832Z,38.71
2023-03-30T09:50:58.734Z,38.91
2023-03-30T09:51:58.800Z,39.02
2023-03-30T09:52:58.765Z,39.14
2023-03-30T09:53:59.062Z,39.34
2023-03-30T09:54:58.772Z,39.48
2023-03-30T09:55:59.597Z,39.69
2023-03-30T09:56:58.765Z,39.75
2023-03-30T09:57:58.737Z,39.99
2023-03-30T09:58:58.731Z,40.08
2023-03-30T09:59:58.652Z,40.01
2023-03-30T10:00:59.133Z,39.89
2023-03-30T10:02:10.100Z,39.93
2023-03-30T10:02:58.820Z,40.08
2023-03-30T10:03:58.910Z,39.96
2023-03-30T10:04:58.714Z,39.95
2023-03-30T10:05:58.663Z,39.60
2023-03-30T10:07:04.400Z,39.87
2023-03-30T10:08:00.573Z,39.89
2023-03-30T10:08:58.615Z,39.89
2023-03-30T10:09:58.658Z,39.71
2023-03-30T10:10:58.669Z,39.78
2023-03-30T10:11:58.842Z,39.79
2023-03-30T10:12:58.770Z,39.80
2023-03-30T10:13:58.804Z,39.75
2023-03-30T10:15:05.952Z,39.94
2023-03-30T10:15:59.913Z,39.94
2023-03-30T10:17:00.551Z,40.00
2023-03-30T10:17:58.949Z,39.94
2023-03-30T10:18:58.924Z,39.95
2023-03-30T10:20:11.017Z,39.80
2023-03-30T10:20:59.925Z,39.83
2023-03-30T10:21:58.911Z,39.85
2023-03-30T10:22:58.804Z,39.82
2023-03-30T10:23:58.817Z,39.84
2023-03-30T10:24:58.919Z,39.50
2023-03-30T10:25:58.940Z,39.58
2023-03-30T10:26:58.991Z,39.42
2023-03-30T10:27:59.201Z,39.29
2023-03-30T10:28:59.163Z,38.96
2023-03-30T10:30:08.770Z,38.29
2023-03-30T10:30:59.214Z,38.28
2023-03-30T10:31:59.260Z,37.92
2023-03-30T10:32:59.233Z,37.60
2023-03-30T10:33:59.155Z,37.92
2023-03-30T10:34:59.143Z,38.23
2023-03-30T10:35:59.187Z,38.30
2023-03-30T10:36:59.161Z,38.42
2023-03-30T10:37:59.112Z,38.55
2023-03-30T10:38:59.121Z,38.69
2023-03-30T10:39:59.796Z,38.80
2023-03-30T10:40:59.173Z,38.90
2023-03-30T10:42:00.119Z,38.94
2023-03-30T10:42:59.088Z,39.02
2023-03-30T10:43:59.088Z,39.10
2023-03-30T10:44:59.053Z,39.13
2023-03-30T10:46:09.007Z,39.18
2023-03-30T10:47:00.117Z,39.27
2023-03-30T10:48:00.309Z,39.32
2023-03-30T10:48:59.023Z,39.39
2023-03-30T10:49:59.028Z,39.46
2023-03-30T10:50:59.060Z,39.49
2023-03-30T10:51:59.061Z,39.55
2023-03-30T10:52:59.825Z,39.64
2023-03-30T10:53:59.798Z,39.72
2023-03-30T10:54:59.119Z,39.75
2023-03-30T10:55:59.136Z,39.87
2023-03-30T10:56:59.233Z,39.93
2023-03-30T10:57:59.338Z,39.95
2023-03-30T10:58:59.201Z,39.98
2023-03-30T11:00:00.101Z,40.07
2023-03-30T11:01:01.152Z,40.08
2023-03-30T11:01:59.275Z,40.15
2023-03-30T11:02:59.443Z,39.88
2023-03-30T11:04:02.721Z,39.13
2023-03-30T11:05:00.309Z,39.48
2023-03-30T11:05:59.303Z,39.19
2023-03-30T11:06:59.348Z,38.42
2023-03-30T11:07:59.273Z,38.75
2023-03-30T11:08:59.264Z,38.46
2023-03-30T11:09:59.223Z,37.95
2023-03-30T11:10:59.269Z,38.01
2023-03-30T11:12:01.712Z,37.55
2023-03-30T11:12:59.300Z,37.02
2023-03-30T11:13:59.296Z,37.22
2023-03-30T11:14:59.231Z,37.11
2023-03-30T11:15:59.271Z,37.07
2023-03-30T11:16:59.235Z,37.01
2023-03-30T11:17:59.245Z,37.02
2023-03-30T11:18:59.273Z,37.09
2023-03-30T11:19:59.197Z,37.13
2023-03-30T11:20:59.203Z,37.34
2023-03-30T11:21:59.672Z,37.34
2023-03-30T11:22:59.206Z,37.41
2023-03-30T11:24:00.097Z,37.37
2023-03-30T11:24:59.158Z,37.38
2023-03-30T11:25:59.244Z,37.32
2023-03-30T11:26:59.161Z,37.28
2023-03-30T11:27:59.242Z,37.22
2023-03-30T11:28:59.155Z,37.24
2023-03-30T11:29:59.188Z,37.15
2023-03-30T11:30:59.153Z,37.14
2023-03-30T11:31:59.178Z,36.59
2023-03-30T11:32:59.198Z,36.90
2023-03-30T11:33:59.141Z,36.03
2023-03-30T11:34:59.124Z,35.93
2023-03-30T11:35:59.125Z,35.93
2023-03-30T11:36:59.128Z,35.77
2023-03-30T11:37:59.119Z,35.74
2023-03-30T11:38:59.089Z,35.61
2023-03-30T11:39:59.067Z,35.52
2023-03-30T11:40:59.091Z,35.52
2023-03-30T11:41:59.149Z,35.42
2023-03-30T11:42:59.047Z,35.37
2023-03-30T11:43:59.059Z,35.36
2023-03-30T11:44:59.099Z,35.28
2023-03-30T11:46:00.216Z,35.26
2023-03-30T11:46:59.006Z,35.24
2023-03-30T11:47:59.041Z,35.23
2023-03-30T11:48:59.019Z,35.26
2023-03-30T11:49:58.987Z,35.21
2023-03-30T11:50:59.032Z,35.15
2023-03-30T11:51:59.058Z,35.11
2023-03-30T11:52:58.966Z,35.02
2023-03-30T11:53:59.014Z,35.03
2023-03-30T11:55:03.366Z,34.98
2023-03-30T11:55:58.978Z,35.01
2023-03-30T11:56:58.998Z,34.97
2023-03-30T11:57:58.938Z,34.91
2023-03-30T11:58:58.957Z,34.78
2023-03-30T11:59:58.972Z,34.77
2023-03-30T12:00:58.964Z,34.89
2023-03-30T12:01:59.127Z,34.98
2023-03-30T12:02:59.175Z,34.99
2023-03-30T12:03:59.328Z,35.18
2023-03-30T12:04:59.264Z,35.18
2023-03-30T12:05:59.296Z,35.18
2023-03-30T12:06:59.358Z,35.21
2023-03-30T12:07:59.376Z,35.19
2023-03-30T12:08:59.414Z,35.20
2023-03-30T12:10:02.731Z,35.20
2023-03-30T12:11:00.595Z,35.17
2023-03-30T12:11:59.591Z,35.18
2023-03-30T12:12:59.670Z,35.20
2023-03-30T12:13:59.561Z,35.21
2023-03-30T12:14:59.614Z,35.21
2023-03-30T12:15:59.674Z,35.16
2023-03-30T12:16:59.614Z,35.17
2023-03-30T12:17:59.717Z,35.16
2023-03-30T12:18:59.736Z,35.16
2023-03-30T12:19:59.749Z,35.19
2023-03-30T12:20:59.770Z,35.18
2023-03-30T12:21:59.883Z,35.15
2023-03-30T12:22:59.834Z,35.15
2023-03-30T12:23:59.874Z,35.16
2023-03-30T12:24:59.966Z,35.15
2023-03-30T12:25:59.948Z,35.14
2023-03-30T12:27:05.831Z,35.16
2023-03-30T12:28:00.985Z,35.15
2023-03-30T12:29:40.550Z,35.15
2023-03-30T12:30:03.326Z,35.17
2023-03-30T12:30:59.942Z,35.14
2023-03-30T12:31:59.989Z,35.18
2023-03-30T12:32:59.971Z,35.13
2023-03-30T12:33:59.955Z,35.10
2023-03-30T12:34:59.906Z,35.07
2023-03-30T12:36:00.000Z,35.07
2023-03-30T12:36:59.932Z,35.08
2023-03-30T12:37:59.942Z,35.07
2023-03-30T12:38:59.896Z,35.05
2023-03-30T12:39:59.913Z,35.08
2023-03-30T12:40:59.901Z,35.04
2023-03-30T12:41:59.854Z,35.08
2023-03-30T12:42:59.869Z,35.06
2023-03-30T12:43:59.863Z,35.07
2023-03-30T12:44:59.873Z,35.09
2023-03-30T12:45:59.850Z,35.10
2023-03-30T12:46:59.832Z,35.10
2023-03-30T12:47:59.906Z,35.11
2023-03-30T12:48:59.862Z,35.13
2023-03-30T12:49:59.851Z,35.12
2023-03-30T12:50:59.815Z,35.15
2023-03-30T12:51:59.788Z,35.13
2023-03-30T12:53:01.797Z,35.17
2023-03-30T12:53:59.782Z,35.16
2023-03-30T12:54:59.787Z,35.17
2023-03-30T12:55:59.799Z,35.19
2023-03-30T12:56:59.797Z,35.21
2023-03-30T12:57:59.792Z,35.20
2023-03-30T12:58:59.764Z,35.22
2023-03-30T12:59:59.764Z,35.22
2023-03-30T13:00:59.798Z,35.24
2023-03-30T13:01:59.722Z,35.24
2023-03-30T13:02:59.768Z,35.25
2023-03-30T13:03:59.773Z,35.26
2023-03-30T13:04:59.702Z,35.26
2023-03-30T13:05:59.727Z,35.28
2023-03-30T13:06:59.707Z,35.27
2023-03-30T13:07:59.725Z,35.29
2023-03-30T13:08:59.659Z,35.29
2023-03-30T13:09:59.727Z,35.30
2023-03-30T13:10:59.689Z,35.28
2023-03-30T13:11:59.775Z,35.28
2023-03-30T13:12:59.650Z,35.33
2023-03-30T13:13:59.666Z,35.28
2023-03-30T13:14:59.665Z,35.31
2023-03-30T13:15:59.633Z,35.32
2023-03-30T13:16:59.630Z,35.32
2023-03-30T13:17:59.730Z,35.31
2023-03-30T13:18:59.629Z,35.32
2023-03-30T13:19:59.595Z,35.31
2023-03-30T13:20:59.642Z,35.30
2023-03-30T13:21:59.797Z,35.31
2023-03-30T13:22:59.757Z,35.29
2023-03-30T13:23:59.827Z,35.32
2023-03-30T13:24:59.882Z,35.32
2023-03-30T13:25:59.952Z,35.30
2023-03-30T13:26:59.995Z,35.33
2023-03-30T13:28:00.089Z,35.32
2023-03-30T13:29:00.284Z,35.30
2023-03-30T13:30:00.455Z,35.31
2023-03-30T13:31:00.714Z,35.32
2023-03-30T13:32:00.738Z,35.33
2023-03-30T13:33:00.867Z,35.28
2023-03-30T13:34:00.822Z,35.30
2023-03-30T13:35:06.625Z,35.30
2023-03-30T13:36:01.976Z,35.33
2023-03-30T13:37:00.841Z,35.31
2023-03-30T13:38:00.930Z,35.33
2023-03-30T13:39:00.811Z,35.29
2023-03-30T13:40:01.012Z,35.27
2023-03-30T13:41:05.189Z,35.30
2023-03-30T13:42:01.123Z,35.28
2023-03-30T13:43:01.128Z,35.28
2023-03-30T13:44:01.131Z,35.30
2023-03-30T13:45:01.113Z,35.29
2023-03-30T13:47:01.181Z,35.26
2023-03-30T13:48:01.203Z,35.30
2023-03-30T13:49:01.161Z,35.31
2023-03-30T13:50:01.118Z,35.31
2023-03-30T13:51:01.079Z,35.29
2023-03-30T13:52:01.070Z,35.30
2023-03-30T13:53:01.130Z,35.26
2023-03-30T13:54:01.131Z,35.29
2023-03-30T13:55:01.267Z,35.31
2023-03-30T13:56:01.387Z,35.28
2023-03-30T13:57:01.644Z,35.32
2023-03-30T13:58:01.655Z,35.34
2023-03-30T13:59:01.712Z,35.32
2023-03-30T14:00:01.811Z,35.29
2023-03-30T14:01:01.815Z,35.26
2023-03-30T14:02:02.007Z,35.27
2023-03-30T14:03:01.938Z,35.26
2023-03-30T14:04:02.009Z,35.31
2023-03-30T14:05:02.007Z,35.29
2023-03-30T14:06:02.171Z,35.30
2023-03-30T14:07:02.098Z,35.28
2023-03-30T14:08:02.191Z,35.24
2023-03-30T14:09:02.228Z,35.22
2023-03-30T14:10:02.253Z,35.21
2023-03-30T14:11:02.579Z,35.21
2023-03-30T14:12:02.370Z,35.21
2023-03-30T14:13:02.395Z,35.21
2023-03-30T14:14:02.471Z,35.20
2023-03-30T14:15:02.476Z,35.21
2023-03-30T14:16:02.656Z,35.17
2023-03-30T14:17:02.554Z,35.20